createdAt,value
2018-02-21T00:01:27.614Z,-0.25
2018-02-21T00:03:56.030Z,-0.35
2018-02-21T00:06:24.371Z,-0.35
2018-02-21T00:08:52.722Z,-0.37
2018-02-21T00:11:21.157Z,-0.43
2018-02-21T00:13:49.542Z,-0.54
2018-02-21T00:16:17.866Z,-0.48
2018-02-21T00:18:46.221Z,-0.37
2018-02-21T00:21:14.557Z,-0.42
2018-02-21T00:23:42.946Z,-0.35
2018-02-21T00:26:11.376Z,-0.39
2018-02-21T00:28:39.798Z,-0.37
2018-02-21T00:31:08.183Z,-0.48
2018-02-21T00:33:36.538Z,-0.59
2018-02-21T00:36:04.870Z,-0.56
2018-02-21T00:38:33.221Z,-0.50
2018-02-21T00:41:01.554Z,-0.53
2018-02-21T00:43:29.963Z,-0.70
2018-02-21T00:45:58.294Z,-0.78
2018-02-21T00:48:26.649Z,-0.90
2018-02-21T00:50:54.977Z,-0.90
2018-02-21T00:53:23.334Z,-0.96
2018-02-21T00:55:51.750Z,-0.85
2018-02-21T00:58:20.110Z,-0.67
2018-02-21T01:00:48.503Z,-0.49
2018-02-21T01:03:16.877Z,-0.38
2018-02-21T01:05:45.259Z,-0.29
2018-02-21T01:08:13.614Z,-0.25
2018-02-21T01:10:41.941Z,-0.43
2018-02-21T01:13:10.385Z,-0.40
2018-02-21T01:15:38.727Z,-0.52
2018-02-21T01:18:07.138Z,-0.45
2018-02-21T01:20:35.473Z,-0.43
2018-02-21T01:23:03.822Z,-0.40
2018-02-21T01:25:32.158Z,-0.33
2018-02-21T01:28:00.550Z,-0.26
2018-02-21T01:30:28.930Z,-0.25
2018-02-21T01:32:57.278Z,-0.19
2018-02-21T01:35:25.682Z,-0.16
2018-02-21T01:37:54.039Z,-0.17
2018-02-21T01:40:22.361Z,-0.23
2018-02-21T01:42:50.718Z,-0.35
2018-02-21T01:45:19.046Z,-0.32
2018-02-21T01:47:47.466Z,-0.36
2018-02-21T01:50:15.839Z,-0.31
2018-02-21T01:52:44.174Z,-0.46
2018-02-21T01:55:12.600Z,-0.38
2018-02-21T01:57:40.974Z,-0.38
2018-02-21T02:00:09.354Z,-0.50
2018-02-21T02:02:37.686Z,-0.57
2018-02-21T02:05:06.105Z,-0.58
2018-02-21T02:07:34.446Z,-0.97
2018-02-21T02:10:02.869Z,-0.94
2018-02-21T02:12:31.211Z,-1.01
2018-02-21T02:14:59.553Z,-1.09
2018-02-21T02:17:27.994Z,-1.12
2018-02-21T02:19:56.350Z,-1.23
2018-02-21T02:22:24.750Z,-1.15
2018-02-21T02:24:53.106Z,-1.15
2018-02-21T02:27:21.506Z,-1.22
2018-02-21T02:29:49.853Z,-1.30
2018-02-21T02:32:18.261Z,-1.33
2018-02-21T02:34:46.638Z,-1.30
2018-02-21T02:37:14.978Z,-1.28
2018-02-21T02:39:50.254Z,-1.27
2018-02-21T02:42:18.594Z,-1.32
2018-02-21T02:44:47.010Z,-1.36
2018-02-21T02:47:15.338Z,-1.33
2018-02-21T02:49:43.759Z,-1.35
2018-02-21T02:52:12.189Z,-1.46
2018-02-21T02:54:40.529Z,-1.52
2018-02-21T02:57:08.898Z,-1.52
2018-02-21T02:59:37.249Z,-1.51
2018-02-21T03:02:05.646Z,-1.50
2018-02-21T03:04:33.996Z,-1.50
2018-02-21T03:07:02.399Z,-1.40
2018-02-21T03:09:30.774Z,-1.30
2018-02-21T03:11:59.156Z,-1.21
2018-02-21T03:14:27.515Z,-1.11
2018-02-21T03:16:55.910Z,-1.18
2018-02-21T03:19:24.285Z,-1.16
2018-02-21T03:21:52.613Z,-1.21
2018-02-21T03:24:21.038Z,-1.26
2018-02-21T03:26:49.413Z,-1.11
2018-02-21T03:29:17.771Z,-1.05
2018-02-21T03:31:46.101Z,-0.95
2018-02-21T03:34:14.545Z,-1.11
2018-02-21T03:36:42.884Z,-1.28
2018-02-21T03:39:11.242Z,-1.48
2018-02-21T03:41:39.566Z,-1.51
2018-02-21T03:44:07.921Z,-1.43
2018-02-21T03:46:36.249Z,-1.22
2018-02-21T03:49:04.710Z,-1.17
2018-02-21T03:51:33.056Z,-1.19
2018-02-21T03:54:01.406Z,-1.18
2018-02-21T03:56:29.769Z,-1.32
2018-02-21T03:58:58.118Z,-1.55
2018-02-21T04:01:26.489Z,-1.49
2018-02-21T04:03:54.868Z,-1.52
2018-02-21T04:06:23.245Z,-1.53
2018-02-21T04:08:51.580Z,-1.47
2018-02-21T04:11:19.934Z,-1.50
2018-02-21T04:13:48.284Z,-1.47
2018-02-21T04:16:16.630Z,-1.43
2018-02-21T04:18:45.031Z,-1.58
2018-02-21T04:21:13.387Z,-1.68
2018-02-21T04:23:41.718Z,-1.60
2018-02-21T04:26:10.071Z,-1.55
2018-02-21T04:28:38.399Z,-1.79
2018-02-21T04:31:06.753Z,-1.88
2018-02-21T04:33:35.143Z,-1.73
2018-02-21T04:36:03.493Z,-1.73
2018-02-21T04:38:31.845Z,-1.66
2018-02-21T04:41:00.197Z,-1.68
2018-02-21T04:43:28.601Z,-1.57
2018-02-21T04:45:56.967Z,-1.58
2018-02-21T04:48:25.349Z,-1.56
2018-02-21T04:50:53.733Z,-1.62
2018-02-21T04:53:22.066Z,-1.54
2018-02-21T04:59:02.769Z,-1.37
2018-02-21T05:01:31.117Z,-1.27
2018-02-21T05:03:59.450Z,-1.21
2018-02-21T05:06:27.814Z,-1.17
2018-02-21T05:08:56.137Z,-1.19
2018-02-21T05:11:24.582Z,-1.18
2018-02-21T05:13:52.959Z,-1.18
2018-02-21T05:16:21.333Z,-1.20
2018-02-21T05:18:49.674Z,-1.18
2018-02-21T05:21:18.018Z,-1.12
2018-02-21T05:23:46.361Z,-1.12
2018-02-21T05:26:14.719Z,-1.05
2018-02-21T05:28:43.045Z,-1.02
2018-02-21T05:31:11.494Z,-1.02
2018-02-21T05:33:39.874Z,-1.03
2018-02-21T05:36:08.226Z,-1.00
2018-02-21T05:38:36.629Z,-1.02
2018-02-21T05:41:04.993Z,-1.07
2018-02-21T05:43:33.385Z,-1.11
2018-02-21T05:46:01.784Z,-1.15
2018-02-21T05:48:30.097Z,-1.34
2018-02-21T05:50:58.521Z,-1.40
2018-02-21T05:53:26.890Z,-1.27
2018-02-21T05:55:55.245Z,-1.01
2018-02-21T05:58:23.671Z,-0.99
2018-02-21T06:00:53.005Z,-1.02
2018-02-21T06:03:21.422Z,-1.04
2018-02-21T06:05:49.802Z,-1.06
2018-02-21T06:08:18.134Z,-1.06
2018-02-21T06:10:46.496Z,-1.16
2018-02-21T06:13:14.933Z,-1.22
2018-02-21T06:15:43.298Z,-1.40
2018-02-21T06:18:11.692Z,-1.55
2018-02-21T06:20:41.021Z,-1.62
2018-02-21T06:23:09.570Z,-1.68
2018-02-21T06:25:37.927Z,-1.50
2018-02-21T06:28:07.475Z,-1.62
2018-02-21T06:30:35.927Z,-1.94
2018-02-21T06:33:04.265Z,-1.97
2018-02-21T06:35:32.682Z,-1.96
2018-02-21T06:38:01.071Z,-1.88
2018-02-21T06:40:29.423Z,-1.87
2018-02-21T06:42:57.775Z,-2.23
2018-02-21T06:45:26.106Z,-2.49
2018-02-21T06:47:54.462Z,-2.47
2018-02-21T06:50:22.802Z,-2.38
2018-02-21T06:52:51.162Z,-2.16
2018-02-21T06:55:19.498Z,-2.05
2018-02-21T06:57:47.849Z,-1.92
2018-02-21T07:00:17.008Z,-1.80
2018-02-21T07:02:45.593Z,-1.66
2018-02-21T07:05:13.946Z,-1.73
2018-02-21T07:07:42.405Z,-1.78
2018-02-21T07:10:10.746Z,-1.70
2018-02-21T07:12:39.107Z,-1.70
2018-02-21T07:15:07.446Z,-1.60
2018-02-21T07:17:35.811Z,-1.65
2018-02-21T07:20:04.141Z,-1.52
2018-02-21T07:22:32.505Z,-1.40
2018-02-21T07:25:00.844Z,-1.34
2018-02-21T07:27:29.223Z,-1.27
2018-02-21T07:29:57.569Z,-1.24
2018-02-21T07:32:26.932Z,-1.17
2018-02-21T07:34:55.259Z,-1.09
2018-02-21T07:37:23.618Z,-1.06
2018-02-21T07:39:52.031Z,-1.02
2018-02-21T07:42:20.405Z,-0.99
2018-02-21T07:44:48.745Z,-1.03
2018-02-21T07:47:17.738Z,-0.97
2018-02-21T07:49:46.078Z,-0.76
2018-02-21T07:52:14.428Z,-0.67
2018-02-21T07:54:42.807Z,-0.84
2018-02-21T07:57:11.162Z,-0.84
2018-02-21T07:59:39.553Z,-1.02
2018-02-21T08:02:07.918Z,-1.13
2018-02-21T08:04:36.249Z,-1.34
2018-02-21T08:07:05.402Z,-1.49
2018-02-21T08:09:33.737Z,-1.55
2018-02-21T08:12:02.172Z,-1.50
2018-02-21T08:14:30.542Z,-1.50
2018-02-21T08:16:58.922Z,-1.53
2018-02-21T08:19:27.296Z,-1.38
2018-02-21T08:21:55.670Z,-1.44
2018-02-21T08:24:24.060Z,-1.31
2018-02-21T08:26:52.410Z,-1.42
2018-02-21T08:29:20.746Z,-1.29
2018-02-21T08:31:49.107Z,-1.25
2018-02-21T08:34:17.450Z,-1.27
2018-02-21T08:36:45.802Z,-1.23
2018-02-21T08:39:14.206Z,-1.23
2018-02-21T08:41:42.562Z,-1.09
2018-02-21T08:44:10.966Z,-1.10
2018-02-21T08:46:39.345Z,-1.11
2018-02-21T08:49:07.717Z,-0.98
2018-02-21T08:51:36.054Z,-0.95
2018-02-21T08:54:04.469Z,-0.93
2018-02-21T08:56:32.811Z,-1.00
2018-02-21T08:59:01.161Z,-0.94
2018-02-21T09:01:29.494Z,-0.80
2018-02-21T09:03:57.860Z,-0.78
2018-02-21T09:06:26.258Z,-0.66
2018-02-21T09:08:54.634Z,-0.60
2018-02-21T09:11:23.010Z,-0.57
2018-02-21T09:13:51.362Z,-0.53
2018-02-21T09:16:19.693Z,-0.50
2018-02-21T09:18:48.055Z,-0.41
2018-02-21T09:21:16.390Z,-0.33
2018-02-21T09:23:44.754Z,-0.33
2018-02-21T09:26:13.166Z,-0.39
2018-02-21T09:28:41.531Z,-0.34
2018-02-21T09:31:09.865Z,-0.26
2018-02-21T09:33:38.306Z,-0.21
2018-02-21T09:36:06.642Z,-0.14
2018-02-21T09:38:35.054Z,-0.01
2018-02-21T09:41:03.389Z,0.04
2018-02-21T09:43:31.812Z,-0.03
2018-02-21T09:46:00.146Z,0.04
2018-02-21T09:48:28.563Z,0.07
2018-02-21T09:50:56.942Z,0.19
2018-02-21T09:53:25.322Z,0.20
2018-02-21T09:55:53.642Z,0.23
2018-02-21T09:58:22.069Z,0.28
2018-02-21T10:00:50.399Z,0.34
2018-02-21T10:03:18.836Z,0.38
2018-02-21T10:05:47.209Z,0.36
2018-02-21T10:08:15.558Z,0.43
2018-02-21T10:10:44.010Z,0.56
2018-02-21T10:13:12.318Z,0.61
2018-02-21T10:15:40.648Z,0.63
2018-02-21T10:18:09.143Z,0.61
2018-02-21T10:20:37.467Z,0.64
2018-02-21T10:23:05.821Z,0.70
2018-02-21T10:25:34.217Z,0.84
2018-02-21T10:28:02.565Z,0.99
2018-02-21T10:30:30.894Z,0.97
2018-02-21T10:32:59.240Z,1.00
2018-02-21T10:35:27.578Z,1.09
2018-02-21T10:37:55.922Z,1.21
2018-02-21T10:40:24.249Z,1.15
2018-02-21T10:42:52.608Z,1.21
2018-02-21T10:45:20.938Z,1.27
2018-02-21T10:47:49.297Z,1.29
2018-02-21T10:50:17.629Z,1.38
2018-02-21T10:52:45.966Z,1.41
2018-02-21T10:55:14.317Z,1.49
2018-02-21T10:57:42.654Z,1.70
2018-02-21T11:00:11.002Z,1.69
2018-02-21T11:02:40.338Z,1.50
2018-02-21T11:05:08.678Z,1.56
2018-02-21T11:07:37.008Z,1.62
2018-02-21T11:10:05.353Z,1.74
2018-02-21T11:12:33.680Z,1.77
2018-02-21T11:15:02.053Z,2.17
2018-02-21T11:17:30.394Z,2.67
2018-02-21T11:19:58.743Z,2.46
2018-02-21T11:22:27.354Z,2.41
2018-02-21T11:24:55.701Z,2.34
2018-02-21T11:27:24.030Z,2.35
2018-02-21T11:29:52.382Z,2.38
2018-02-21T11:32:20.706Z,2.41
2018-02-21T11:34:49.062Z,2.54
2018-02-21T11:37:17.399Z,2.51
2018-02-21T11:39:45.750Z,2.60
2018-02-21T11:42:14.895Z,2.69
2018-02-21T11:44:43.291Z,2.64
2018-02-21T11:47:11.643Z,2.65
2018-02-21T11:49:39.994Z,2.56
2018-02-21T11:52:08.317Z,2.59
2018-02-21T11:54:36.665Z,2.68
2018-02-21T11:57:04.992Z,2.70
2018-02-21T11:59:33.346Z,2.74
2018-02-21T12:02:01.691Z,2.72
2018-02-21T12:04:30.039Z,2.81
2018-02-21T12:06:58.367Z,2.84
2018-02-21T12:09:26.713Z,2.79
2018-02-21T12:11:55.043Z,2.88
2018-02-21T12:14:23.393Z,3.26
2018-02-21T12:16:51.734Z,3.22
2018-02-21T12:19:20.201Z,3.12
2018-02-21T12:21:48.538Z,3.22
2018-02-21T12:24:16.877Z,3.06
2018-02-21T12:26:45.214Z,3.15
2018-02-21T12:29:13.557Z,3.09
2018-02-21T12:31:41.895Z,3.14
2018-02-21T12:34:10.234Z,3.22
2018-02-21T12:36:38.566Z,3.34
2018-02-21T12:39:12.647Z,3.31
2018-02-21T12:41:42.910Z,3.36
2018-02-21T12:44:11.274Z,3.39
2018-02-21T12:46:39.597Z,3.37
2018-02-21T12:49:07.946Z,3.31
2018-02-21T12:51:36.460Z,3.36
2018-02-21T12:54:04.816Z,3.50
2018-02-21T12:56:33.143Z,3.65
2018-02-21T12:59:01.481Z,3.62
2018-02-21T13:01:29.848Z,3.73
2018-02-21T13:03:58.165Z,3.80
2018-02-21T13:06:26.509Z,3.90
2018-02-21T13:08:54.838Z,4.02
2018-02-21T13:11:23.194Z,4.10
2018-02-21T13:13:51.573Z,4.28
2018-02-21T13:16:19.910Z,4.14
2018-02-21T13:18:48.244Z,4.17
2018-02-21T13:21:16.659Z,3.96
2018-02-21T13:23:44.954Z,3.90
2018-02-21T13:26:13.310Z,3.84
2018-02-21T13:28:41.641Z,3.67
2018-02-21T13:31:10.007Z,3.57
2018-02-21T13:33:38.342Z,3.50
2018-02-21T13:36:06.694Z,3.59
2018-02-21T13:38:35.035Z,3.73
2018-02-21T13:41:03.383Z,3.73
2018-02-21T13:43:31.834Z,3.91
2018-02-21T13:46:00.195Z,3.91
2018-02-21T13:48:28.525Z,3.89
2018-02-21T13:50:56.879Z,3.95
2018-02-21T13:53:25.205Z,3.99
2018-02-21T13:55:53.553Z,4.08
2018-02-21T13:58:21.887Z,4.13
2018-02-21T14:00:50.239Z,4.02
2018-02-21T14:03:18.564Z,4.03
2018-02-21T14:05:46.912Z,3.94
2018-02-21T14:08:15.247Z,3.98
2018-02-21T14:10:43.593Z,3.93
2018-02-21T14:13:11.933Z,3.86
2018-02-21T14:15:40.305Z,3.98
2018-02-21T14:18:08.636Z,3.99
2018-02-21T14:20:36.986Z,3.99
2018-02-21T14:23:05.358Z,3.88
2018-02-21T14:25:33.804Z,3.95
2018-02-21T14:28:02.174Z,3.86
2018-02-21T14:30:30.593Z,3.82
2018-02-21T14:32:58.949Z,3.84
2018-02-21T14:35:27.439Z,3.83
2018-02-21T14:37:55.813Z,3.74
2018-02-21T14:40:24.436Z,3.67
2018-02-21T14:42:52.778Z,3.70
2018-02-21T14:45:21.723Z,3.71
2018-02-21T14:47:51.853Z,3.75
2018-02-21T14:50:20.261Z,3.81
2018-02-21T14:52:48.611Z,3.73
2018-02-21T14:55:17.127Z,3.68
2018-02-21T14:57:45.451Z,3.87
2018-02-21T15:00:13.818Z,3.74
2018-02-21T15:02:42.557Z,3.71
2018-02-21T15:05:10.861Z,3.77
2018-02-21T15:07:39.359Z,3.74
2018-02-21T15:10:07.687Z,3.72
2018-02-21T15:12:36.225Z,3.68
2018-02-21T15:15:04.558Z,3.56
2018-02-21T15:17:32.939Z,3.48
2018-02-21T15:20:01.271Z,3.43
2018-02-21T15:22:29.622Z,3.69
2018-02-21T15:24:57.947Z,3.57
2018-02-21T15:27:26.303Z,3.42
2018-02-21T15:29:54.692Z,3.44
2018-02-21T15:32:23.257Z,3.39
2018-02-21T15:34:51.610Z,3.30
2018-02-21T15:37:19.966Z,3.34
2018-02-21T15:39:49.425Z,3.25
2018-02-21T15:42:19.260Z,3.21
2018-02-21T15:44:48.081Z,3.16
2018-02-21T15:47:16.913Z,3.21
2018-02-21T15:49:46.403Z,3.20
2018-02-21T15:52:15.950Z,3.21
2018-02-21T15:54:45.599Z,3.21
2018-02-21T15:57:14.327Z,3.23
2018-02-21T15:59:44.129Z,3.33
2018-02-21T16:02:12.925Z,3.28
2018-02-21T16:04:41.609Z,3.27
2018-02-21T16:07:11.218Z,3.25
2018-02-21T16:09:40.413Z,3.17
2018-02-21T16:12:09.814Z,3.08
2018-02-21T16:14:38.605Z,2.98
2018-02-21T16:17:07.413Z,2.97
2018-02-21T16:19:36.276Z,3.01
2018-02-21T16:22:05.081Z,3.02
2018-02-21T16:24:33.747Z,2.89
2018-02-21T16:27:02.601Z,3.01
2018-02-21T16:29:31.423Z,3.02
2018-02-21T16:32:01.210Z,2.86
2018-02-21T16:34:30.122Z,2.84
2018-02-21T16:36:59.809Z,2.85
2018-02-21T16:39:28.743Z,3.60
2018-02-21T16:41:57.712Z,3.38
2018-02-21T16:44:27.517Z,3.25
2018-02-21T16:46:56.899Z,2.99
2018-02-21T16:49:25.807Z,2.92
2018-02-21T16:51:54.929Z,2.88
2018-02-21T16:54:23.881Z,2.77
2018-02-21T16:56:52.799Z,2.73
2018-02-21T16:59:21.774Z,2.70
2018-02-21T17:01:50.875Z,2.69
2018-02-21T17:04:19.410Z,2.57
2018-02-21T17:06:47.757Z,2.57
2018-02-21T17:09:16.100Z,2.52
2018-02-21T17:11:44.487Z,2.62
2018-02-21T17:14:12.807Z,2.50
2018-02-21T17:16:41.906Z,2.43
2018-02-21T17:19:10.241Z,2.61
2018-02-21T17:21:38.653Z,2.61
2018-02-21T17:24:07.062Z,2.59
2018-02-21T17:26:35.514Z,2.76
2018-02-21T17:29:03.866Z,2.70
2018-02-21T17:31:32.191Z,2.60
2018-02-21T17:34:00.893Z,2.57
2018-02-21T17:36:29.238Z,2.58
2018-02-21T17:38:57.581Z,2.50
2018-02-21T17:41:31.650Z,2.56
2018-02-21T17:44:00.022Z,2.63
2018-02-21T17:46:28.482Z,2.62
2018-02-21T17:48:56.850Z,2.55
2018-02-21T17:51:25.173Z,2.42
2018-02-21T17:53:53.598Z,2.48
2018-02-21T17:56:21.933Z,2.46
2018-02-21T17:58:50.296Z,2.55
2018-02-21T18:01:18.611Z,2.61
2018-02-21T18:03:47.018Z,2.62
2018-02-21T18:06:15.358Z,2.62
2018-02-21T18:08:43.766Z,2.54
2018-02-21T18:11:12.098Z,2.67
2018-02-21T18:13:40.469Z,2.52
2018-02-21T18:16:08.789Z,2.47
2018-02-21T18:18:37.138Z,2.48
2018-02-21T18:21:05.478Z,2.43
2018-02-21T18:23:33.862Z,2.50
2018-02-21T18:26:02.250Z,2.56
2018-02-21T18:28:30.679Z,2.40
2018-02-21T18:30:59.024Z,2.43
2018-02-21T18:33:27.401Z,2.38
2018-02-21T18:35:56.704Z,2.22
2018-02-21T18:38:25.067Z,2.06
2018-02-21T18:40:53.486Z,2.12
2018-02-21T18:43:21.846Z,2.24
2018-02-21T18:45:50.197Z,2.22
2018-02-21T18:48:18.590Z,2.03
2018-02-21T18:50:46.948Z,1.96
2018-02-21T18:53:15.365Z,1.90
2018-02-21T18:55:43.783Z,1.86
2018-02-21T18:58:12.276Z,1.82
2018-02-21T19:00:40.635Z,1.76
2018-02-21T19:03:09.083Z,1.73
2018-02-21T19:05:37.412Z,1.70
2018-02-21T19:08:05.889Z,1.75
2018-02-21T19:10:34.313Z,1.80
2018-02-21T19:13:02.684Z,1.97
2018-02-21T19:15:31.069Z,1.91
2018-02-21T19:17:59.425Z,1.93
2018-02-21T19:20:27.787Z,1.91
2018-02-21T19:22:56.227Z,1.94
2018-02-21T19:25:24.643Z,1.93
2018-02-21T19:27:53.032Z,1.85
2018-02-21T19:30:21.442Z,1.69
2018-02-21T19:32:49.814Z,1.75
2018-02-21T19:35:18.201Z,1.80
2018-02-21T19:37:46.609Z,1.75
2018-02-21T19:40:15.016Z,1.77
2018-02-21T19:42:43.402Z,1.80
2018-02-21T19:45:12.007Z,1.89
2018-02-21T19:47:40.424Z,1.82
2018-02-21T19:50:08.788Z,1.81
2018-02-21T19:52:37.111Z,1.78
2018-02-21T19:55:05.522Z,1.61
2018-02-21T19:57:33.900Z,1.62
2018-02-21T20:00:02.239Z,1.70
2018-02-21T20:02:30.589Z,1.73
2018-02-21T20:04:58.946Z,1.72
2018-02-21T20:07:27.266Z,1.72
2018-02-21T20:09:55.673Z,1.72
2018-02-21T20:12:24.057Z,1.68
2018-02-21T20:14:52.436Z,1.68
2018-02-21T20:17:20.834Z,1.61
2018-02-21T20:19:49.296Z,1.73
2018-02-21T20:22:17.872Z,1.72
2018-02-21T20:24:46.298Z,1.61
2018-02-21T20:27:14.622Z,1.72
2018-02-21T20:29:43.006Z,1.82
2018-02-21T20:32:11.378Z,1.72
2018-02-21T20:34:39.782Z,1.59
2018-02-21T20:37:08.134Z,1.63
2018-02-21T20:39:36.496Z,1.62
2018-02-21T20:42:04.822Z,1.65
2018-02-21T20:44:33.266Z,1.69
2018-02-21T20:47:02.521Z,1.68
2018-02-21T20:49:30.898Z,1.61
2018-02-21T20:51:59.318Z,1.61
2018-02-21T20:54:27.697Z,1.57
2018-02-21T20:56:56.179Z,1.65
2018-02-21T20:59:24.533Z,1.71
2018-02-21T21:01:52.926Z,1.63
2018-02-21T21:04:21.310Z,1.62
2018-02-21T21:06:53.067Z,1.63
2018-02-21T21:09:21.513Z,1.57
2018-02-21T21:11:49.850Z,1.59
2018-02-21T21:14:18.198Z,1.58
2018-02-21T21:16:46.530Z,1.54
2018-02-21T21:19:15.418Z,1.49
2018-02-21T21:21:43.749Z,1.49
2018-02-21T21:24:12.217Z,1.40
2018-02-21T21:26:40.543Z,1.50
2018-02-21T21:29:08.965Z,1.56
2018-02-21T21:31:37.306Z,1.57
2018-02-21T21:34:05.727Z,1.67
2018-02-21T21:36:35.002Z,1.69
2018-02-21T21:39:03.334Z,1.71
2018-02-21T21:41:31.693Z,1.57
2018-02-21T21:44:00.018Z,1.47
2018-02-21T21:46:28.421Z,1.53
2018-02-21T21:48:56.808Z,1.51
2018-02-21T21:51:25.198Z,1.43
2018-02-21T21:53:53.530Z,1.50
2018-02-21T21:56:21.885Z,1.47
2018-02-21T21:58:50.217Z,1.44
2018-02-21T22:01:18.578Z,1.33
2018-02-21T22:03:46.962Z,1.26
2018-02-21T22:06:15.321Z,1.33
2018-02-21T22:08:43.651Z,1.18
2018-02-21T22:11:11.993Z,1.21
2018-02-21T22:13:40.325Z,1.19
2018-02-21T22:16:08.677Z,1.11
2018-02-21T22:18:37.473Z,1.19
2018-02-21T22:21:05.813Z,1.09
2018-02-21T22:23:34.145Z,1.15
2018-02-21T22:26:02.493Z,1.07
2018-02-21T22:28:30.845Z,0.99
2018-02-21T22:30:59.236Z,0.98
2018-02-21T22:33:27.559Z,0.91
2018-02-21T22:35:55.971Z,0.92
2018-02-21T22:38:24.295Z,0.82
2018-02-21T22:40:52.638Z,0.80
2018-02-21T22:43:20.994Z,0.80
2018-02-21T22:45:49.382Z,0.87
2018-02-21T22:48:17.705Z,0.82
2018-02-21T22:50:46.058Z,0.76
2018-02-21T22:53:14.389Z,0.67
2018-02-21T22:55:42.782Z,0.63
2018-02-21T22:58:11.110Z,0.57
2018-02-21T23:00:39.534Z,0.59
2018-02-21T23:03:07.909Z,0.50
2018-02-21T23:05:36.254Z,0.49
2018-02-21T23:08:04.666Z,0.50
2018-02-21T23:10:33.050Z,0.41
2018-02-21T23:13:01.373Z,0.40
2018-02-21T23:15:29.737Z,0.33
2018-02-21T23:17:58.061Z,0.29
2018-02-21T23:20:26.405Z,0.31
2018-02-21T23:22:54.730Z,0.26
2018-02-21T23:25:23.102Z,0.26
2018-02-21T23:27:51.430Z,0.28
2018-02-21T23:30:19.777Z,0.28
2018-02-21T23:32:48.135Z,0.31
2018-02-21T23:35:16.510Z,0.31
2018-02-21T23:37:44.886Z,0.24
2018-02-21T23:40:13.220Z,0.25
2018-02-21T23:42:41.561Z,0.19
2018-02-21T23:45:09.885Z,0.11
2018-02-21T23:47:38.295Z,0.09
2018-02-21T23:50:06.625Z,0.09
2018-02-21T23:52:34.974Z,0.07
2018-02-21T23:55:03.320Z,0.12
2018-02-21T23:57:31.701Z,0.16
